Flight Track Log - Related Links

Times and Time Zones

All times are in EDT time to prevent confusion due to time zone crossing. See the N717AN flight status page for this flight to view local times or setup timezone preferences in your user account.

Time Position Orientation Groundspeed Altitude Reporting Facility
EDT Latitude Longitude Course Direction KTS MPH feet Rate Location/Type
Mon 06:53:15 PM 40.6440 -73.7950 171° South 18 21  Level FlightAware
Mon 06:54:57 PM 40.6420 -73.7950 180° South 30 35 15 Level FlightAware
Mon 06:55:25 PM 40.6410 -73.7950 180° South 34 39 16 Level FlightAware
Mon 06:55:50 PM 40.6390 -73.7950 180° South 25 29 17 Level FlightAware
Mon 06:56:21 PM 40.6380 -73.7940 143° Southeast 25 29 17 Level FlightAware
Mon 06:56:37 PM 40.6380 -73.7930 90° East 24 28 17 Level FlightAware
Mon 06:57:05 PM 40.6370 -73.7920 143° Southeast 27 31 18 Level FlightAware
Mon 06:57:32 PM 40.6360 -73.7900 123° Southeast 31 36 18 Level FlightAware
Mon 06:58:01 PM 40.6350 -73.7880 123° Southeast 15 17 18 Level FlightAware
Mon 06:58:29 PM 40.6340 -73.7860 123° Southeast 17 20 19 Level FlightAware
Mon 06:58:57 PM 40.6330 -73.7840 123° Southeast 31 36 19 Level FlightAware
Mon 06:59:09 PM 40.6330 -73.7830 90° East 33 38 20 Level FlightAware
Mon 06:59:37 PM 40.6320 -73.7810 123° Southeast 26 30 20 Level FlightAware
Mon 07:00:07 PM 40.6310 -73.7800 143° Southeast 22 25 20 Level FlightAware
Mon 07:00:31 PM 40.6300 -73.7810 217° Southwest 26 30 21 Level FlightAware
Mon 07:01:03 PM 40.6290 -73.7820 217° Southwest 17 20 21 Level FlightAware
Mon 07:02:53 PM 40.6280 -73.7830 114° Southeast 15 17 22 Level FlightAware
Mon 07:03:00 PM 40.5339 -73.4852 114° Southeast  Level FlightAware
Mon 07:05:00 PM 40.5333 -73.4634 90° East  Level FlightAware
Mon 07:05:15 PM 40.6270 -73.7840 90° East 14 16  Level FlightAware
Mon 07:06:53 PM 40.6260 -73.7840 180° South 18 21 28 Level FlightAware
Mon 07:07:15 PM 40.6260 -73.7850 270° West 2 2 32 Level FlightAware
Mon 07:08:31 PM 40.6250 -73.7850 180° South 15 17 33 Level FlightAware
Mon 07:11:00 PM 40.5157 -73.3990 143° Southeast  Level FlightAware
Mon 07:12:00 PM 40.4638 -73.2525 105° East  Level FlightAware
Mon 07:13:00 PM 40.4151 -73.1018 119° Southeast  Level FlightAware
Mon 07:13:39 PM 40.6240 -73.7860 119° Southeast 19 22  Level FlightAware
Mon 07:16:00 PM 40.8080 -73.4815 90° East  Level Estimated
Mon 07:16:22 PM 40.6230 -73.7860 90° East 17 20  Level FlightAware
Mon 07:16:34 PM 40.6230 -73.7870 270° West 11 13 130 Level FlightAware
Mon 07:18:03 PM 40.6220 -73.7860 143° Southeast 25 29 139 Level FlightAware
Mon 07:18:29 PM 40.6230 -73.7850 37° Northeast 13 15 286 Level FlightAware
Mon 07:19:00 PM 40.6280 -73.7810 31° Northeast 105 121 414 Level FlightAware
Mon 07:19:27 PM 40.6460 -73.7670 31° Northeast 188 216 400 2,024 Climbing FlightAware
Mon 07:19:51 PM 40.6647 -73.7513 32° Northeast 1,400 2,571 Climbing FlightAware
Mon 07:20:23 PM 40.6750 -73.7140 70° East 212 244 2,800 2,323 Climbing FlightAware
Mon 07:20:53 PM 40.6660 -73.6740 107° East 234 269 3,800 1,862 Climbing FlightAware
Mon 07:21:21 PM 40.6520 -73.6340 115° Southeast 266 306 4,600 2,100 Climbing FlightAware
Mon 07:21:33 PM 40.6450 -73.6180 120° Southeast 269 310 5,200 3,000 Climbing FlightAware
Mon 07:22:03 PM 40.6275 -73.5728 117° Southeast 277 319 6,700 2,885 Climbing FlightAware
Mon 07:22:25 PM 40.6140 -73.5394 118° Southeast 284 327 7,700 2,684 Climbing FlightAware
Mon 07:22:41 PM 40.6041 -73.5149 118° Southeast 289 333 8,400 2,710 Climbing FlightAware
Mon 07:22:56 PM 40.5945 -73.4910 118° Southeast 293 337 9,100 2,897 Climbing FlightAware
Mon 07:23:10 PM 40.5854 -73.4686 118° Southeast 297 342 9,800 2,250 Climbing FlightAware
Mon 07:23:52 PM 40.5560 -73.3980 119° Southeast 328 377 11,200 2,523 Climbing FlightAware
Mon 07:24:38 PM 40.5230 -73.3150 118° Southeast 343 395 13,500 2,919 Climbing FlightAware
Mon 07:25:06 PM 40.5130 -73.2600 103° East 356 410 14,800 2,613 Climbing FlightAware
Mon 07:25:40 PM 40.5200 -73.1870 83° East 368 423 16,200 2,561 Climbing FlightAware
Mon 07:26:28 PM 40.5380 -73.0740 78° East 389 448 18,300 1,909 Climbing FlightAware
Mon 07:27:08 PM 40.5530 -72.9790 78° East 403 464 19,000 488 Climbing FlightAware
Mon 07:27:54 PM 40.5650 -72.8690 82° East 404 465 19,000 276 Level FlightAware
Mon 07:28:35 PM 40.5770 -72.7660 81° East 406 467 19,400 1,103 Climbing FlightAware
Mon 07:29:21 PM 40.5872 -72.6821 81° East 421 484 20,600 2,122 Climbing FlightAware
Mon 07:29:57 PM 40.6018 -72.5596 81° East 431 496 22,300 2,556 Climbing FlightAware
Mon 07:30:15 PM 40.6072 -72.5127 81° East 436 502 22,900 1,886 Climbing FlightAware
Mon 07:30:32 PM 40.6085 -72.4672 88° East 440 506 23,400 1,765 Climbing FlightAware
Mon 07:31:06 PM 40.6061 -72.3773 92° East 450 518 24,400 1,765 Climbing FlightAware
Mon 07:31:40 PM 40.6040 -72.2828 92° East 457 526 25,400 1,750 Climbing FlightAware
Mon 07:32:18 PM 40.6020 -72.1780 91° East 468 539 26,500 1,671 Climbing FlightAware
Mon 07:32:59 PM 40.5980 -72.0610 93° East 477 549 27,600 1,694 Climbing FlightAware
Mon 07:33:43 PM 40.6070 -71.9320 85° East 485 558 28,900 1,630 Climbing FlightAware
Mon 07:34:20 PM 40.6250 -71.8280 77° East 492 566 29,800 711 Climbing FlightAware
Mon 07:34:59 PM 40.6420 -71.7310 77° East 492 566 29,800  Level FlightAware
Mon 07:35:50 PM 40.6640 -71.6040 77° East 492 566 29,800  Level FlightAware
Mon 07:36:26 PM 40.6790 -71.5150 77° East 492 566 29,800  Level FlightAware
Mon 07:37:10 PM 40.6990 -71.4050 76° East 492 566 29,800 2,516 Level FlightAware
Mon 07:38:30 PM 40.7200 -71.0450 85° East 538 619 35,000 2,579 Climbing FlightAware
Mon 07:39:11 PM 40.7350 -70.9150 81° East 541 623 35,000  Level FlightAware
Mon 07:40:13 PM 40.7580 -70.7190 81° East 541 623 35,000  Level FlightAware
Mon 07:40:49 PM 40.7700 -70.6190 81° East 541 623 35,000  Level FlightAware
Mon 07:41:35 PM 40.7860 -70.4910 81° East 541 623 35,000  Level FlightAware
Mon 07:42:35 PM 40.8050 -70.3250 81° East 541 623 35,000  Level FlightAware
Mon 07:43:10 PM 40.8170 -70.2280 81° East 541 623 35,000  Level FlightAware
Mon 07:43:59 PM 40.8330 -70.0920 81° East 541 623 35,000  Level FlightAware
Mon 07:44:35 PM 40.8450 -69.9920 81° East 541 623 35,000  Level FlightAware
Mon 07:45:25 PM 40.8620 -69.8530 81° East 541 623 35,000  Level FlightAware
Mon 07:46:03 PM 40.8750 -69.7470 81° East 541 623 35,000  Level FlightAware
Mon 07:46:49 PM 40.8900 -69.6190 81° East 541 623 35,000  Level FlightAware
Mon 07:47:23 PM 40.9010 -69.5250 81° East 541 623 35,000  Level FlightAware
Mon 07:48:11 PM 40.9170 -69.3910 81° East 541 623 35,000  Level FlightAware
Mon 07:48:49 PM 40.9300 -69.2860 81° East 541 623 35,000  Level FlightAware
Mon 07:49:35 PM 40.9450 -69.1580 81° East 541 623 35,000  Level FlightAware
Mon 07:49:53 PM 40.9536 -68.8217 81° East 544 626 35,000  Level New Center
Mon 07:50:53 PM 40.9733 -68.6233 82° East 544 626 35,000  Level New Center
Mon 07:51:54 PM 40.9925 -68.4275 83° East 539 620 35,000 -49 Level New Center
Mon 07:52:55 PM 41.0117 -68.2317 83° East 539 620 34,900  Descending New Center
Mon 07:53:53 PM 41.0281 -68.0358 84° East 539 620 35,000 50 Climbing New Center
Mon 07:54:56 PM 41.0444 -67.8400 84° East 539 620 35,000 -50 Level New Center
Mon 07:55:54 PM 41.0625 -67.6439 83° East 539 620 34,900 -51 Descending New Center
Mon 07:56:54 PM 41.0800 -67.4394 83° East 544 626 34,900 53 Level New Center
Mon 07:57:47 PM 41.0833 -67.3500 83° East 545 627 35,000 50 Climbing New Oceanic
Mon 07:58:55 PM 41.1122 -67.0442 83° East 544 626 35,000  Level New Center
Mon 07:59:17 PM 41.1167 -67.0000 78° East 548 631 35,000  Level New Oceanic
Mon 07:59:54 PM 41.1372 -66.8472 78° East 544 626 35,000  Level New Center
Mon 08:01:00 PM 41.2244 -66.6777 56° Northeast  Level FlightAware
Mon 08:08:00 PM 41.7734 -65.5881 56° Northeast  Level FlightAware
Mon 08:09:00 PM 41.8509 -65.4293 58° Northeast  Level FlightAware
Mon 08:10:00 PM 41.9258 -65.2696 58° Northeast  Level FlightAware
Mon 08:11:00 PM 42.0005 -65.1095 58° Northeast  Level FlightAware
Mon 08:11:18 PM 41.4667 -64.6000 80° East 549 632 35,000  Level New Oceanic
Mon 08:12:00 PM 42.0749 -64.9491 58° Northeast  Level FlightAware
Mon 08:13:00 PM 42.1491 -64.7882 58° Northeast  Level FlightAware
Mon 08:14:00 PM 42.2231 -64.6270 58° Northeast  Level FlightAware
Mon 08:15:00 PM 42.2968 -64.4655 58° Northeast  Level FlightAware
Mon 08:16:00 PM 42.3704 -64.3035 58° Northeast  Level FlightAware
Mon 08:17:00 PM 41.6234 -63.4076 80° East 549 632 35,000  Level FlightAware
Mon 08:18:00 PM 41.6484 -63.2082 81° East 549 632 35,000  Level FlightAware
Mon 08:19:00 PM 41.6730 -63.0088 81° East 549 632 35,000  Level FlightAware
Mon 08:20:00 PM 41.6972 -62.8092 81° East 549 632 35,000  Level FlightAware
Mon 08:21:00 PM 41.7211 -62.6095 81° East 549 632 35,000  Level FlightAware
Mon 08:22:00 PM 41.7446 -62.4096 81° East 549 632 35,000  Level FlightAware
Mon 08:23:00 PM 41.7678 -62.2095 81° East 549 632 35,000  Level FlightAware
Mon 08:24:00 PM 41.7907 -62.0093 81° East 549 632 35,000  Level FlightAware
Mon 08:25:00 PM 41.8132 -61.8090 81° East 549 632 35,000  Level FlightAware
Mon 08:25:09 PM 41.8167 -61.8000 82° East 550 633 35,000  Level New Oceanic
Mon 08:26:00 PM 41.8353 -61.6085 82° East 549 632 35,000  Level FlightAware
Mon 08:27:00 PM 41.8572 -61.4079 82° East 549 632 35,000  Level FlightAware
Mon 08:28:00 PM 41.8786 -61.2072 82° East 549 632 35,000  Level FlightAware
Mon 08:29:00 PM 41.8997 -61.0063 82° East 549 632 35,000  Level FlightAware
Mon 08:30:00 PM 41.9205 -60.8053 82° East 549 632 35,000  Level FlightAware
Mon 08:31:00 PM 41.9420 -60.6011 82° East 550 633 35,000  Level FlightAware
Mon 08:32:00 PM 41.9617 -60.4009 83° East 550 633 35,000  Level FlightAware
Mon 08:33:00 PM 41.9810 -60.2005 83° East 550 633 35,000  Level FlightAware
Mon 08:34:00 PM 42.0000 -60.0000 79° East 550 633 35,000  Level FlightAware
Mon 08:34:05 PM 42.0000 -60.0000 79° East 567 652 35,000  Level New Oceanic
Mon 08:35:00 PM 42.0302 -59.7910 79° East 550 633 35,000  Level FlightAware
Mon 08:36:00 PM 42.0601 -59.5818 79° East 550 633 35,000  Level FlightAware
Mon 08:37:00 PM 42.0896 -59.3724 79° East 550 633 35,000  Level FlightAware
Mon 08:38:00 PM 42.1187 -59.1628 79° East 550 633 35,000  Level FlightAware
Mon 08:39:00 PM 42.1474 -58.9530 80° East 550 633 35,000  Level FlightAware
Mon 08:39:02 PM 42.1500 -58.9667 80° East 571 657 35,000  Level New Oceanic
Mon 08:40:00 PM 42.1757 -58.7430 80° East 567 652 35,000  Level FlightAware
Mon 08:41:00 PM 42.2037 -58.5328 80° East 567 652 35,000  Level FlightAware
Mon 08:42:00 PM 42.2312 -58.3225 80° East 567 652 35,000  Level FlightAware
Mon 08:43:00 PM 42.2584 -58.1119 80° East 567 652 35,000  Level FlightAware
Mon 08:44:00 PM 42.2852 -57.9012 80° East 567 652 35,000  Level FlightAware
Mon 08:45:00 PM 42.3140 -57.7020 80° East 571 657 35,000  Level FlightAware
Mon 08:46:00 PM 42.3399 -57.4907 81° East 571 657 35,000  Level FlightAware
Mon 08:47:00 PM 42.3655 -57.2791 81° East 571 657 35,000  Level FlightAware
Mon 08:48:00 PM 42.3907 -57.0673 81° East 571 657 35,000  Level FlightAware
Mon 08:49:00 PM 42.4155 -56.8554 81° East 571 657 35,000  Level FlightAware
Mon 08:50:00 PM 42.4399 -56.6433 81° East 571 657 35,000  Level FlightAware
Mon 08:51:00 PM 42.4640 -56.4311 81° East 571 657 35,000  Level FlightAware
Mon 08:52:00 PM 42.4876 -56.2187 81° East 571 657 35,000  Level FlightAware
Mon 08:52:55 PM 42.5000 -56.0833 82° East 578 665 35,000  Level New Oceanic
Mon 08:53:00 PM 42.5108 -56.0061 82° East 571 657 35,000  Level FlightAware
Mon 08:54:00 PM 42.5337 -55.7934 82° East 571 657 35,000  Level FlightAware
Mon 08:55:00 PM 42.5561 -55.5806 82° East 571 657 35,000  Level FlightAware
Mon 08:56:00 PM 42.5782 -55.3675 82° East 571 657 35,000  Level FlightAware
Mon 08:57:00 PM 42.5999 -55.1544 82° East 571 657 35,000  Level FlightAware
Mon 08:58:00 PM 42.6211 -54.9410 82° East 571 657 35,000  Level FlightAware
Mon 08:59:00 PM 42.6342 -54.7885 82° East 578 665 35,000  Level FlightAware
Mon 09:00:00 PM 42.6551 -54.5722 83° East 578 665 35,000  Level FlightAware
Mon 09:01:00 PM 42.6756 -54.3557 83° East 578 665 35,000  Level FlightAware
Mon 09:02:00 PM 42.6958 -54.1391 83° East 578 665 35,000  Level FlightAware
Mon 09:03:00 PM 42.7155 -53.9223 83° East 578 665 35,000  Level FlightAware
Mon 09:04:00 PM 42.7348 -53.7054 83° East 578 665 35,000  Level FlightAware
Mon 09:05:00 PM 42.7537 -53.4884 83° East 578 665 35,000  Level FlightAware
Mon 09:06:00 PM 42.7722 -53.2712 83° East 578 665 35,000  Level FlightAware
Mon 09:06:48 PM 42.7833 -53.0833 83° East 588 677 35,000  Level New Oceanic
Mon 09:07:00 PM 42.7903 -53.0540 84° East 578 665 35,000  Level FlightAware
Mon 09:08:00 PM 42.8079 -52.8365 84° East 578 665 35,000  Level FlightAware
Mon 09:09:00 PM 42.8252 -52.6190 84° East 578 665 35,000  Level FlightAware
Mon 09:10:00 PM 42.8420 -52.4013 84° East 578 665 35,000  Level FlightAware
Mon 09:11:00 PM 42.8585 -52.1836 84° East 578 665 35,000  Level FlightAware
Mon 09:12:00 PM 42.8745 -51.9657 84° East 578 665 35,000  Level FlightAware
Mon 09:13:00 PM 42.8863 -51.7646 84° East 588 677 35,000  Level FlightAware
Mon 09:14:00 PM 42.9020 -51.5444 85° East 588 677 35,000  Level FlightAware
Mon 09:15:00 PM 42.9173 -51.3241 85° East 588 677 35,000  Level FlightAware
Mon 09:16:00 PM 42.9321 -51.1036 85° East 588 677 35,000  Level FlightAware
Mon 09:17:00 PM 42.9465 -50.8831 85° East 588 677 35,000  Level FlightAware
Mon 09:18:00 PM 42.9605 -50.6625 85° East 588 677 35,000  Level FlightAware
Mon 09:19:00 PM 42.9741 -50.4417 85° East 588 677 35,000  Level FlightAware
Mon 09:20:00 PM 42.9873 -50.2209 85° East 588 677 35,000  Level FlightAware
Mon 09:20:38 PM 43.0000 -50.0000 71° East 573 659 35,000  Level New Oceanic
Mon 09:21:00 PM 43.0000 -50.0000 71° East 588 677 35,000  Level FlightAware
Mon 09:21:03 PM 43.0167 -49.9500 71° East 571 657 35,000  Level New Oceanic
Mon 09:22:00 PM 43.0514 -49.7946 71° East 588 677 35,000  Level FlightAware
Mon 09:23:00 PM 43.1025 -49.5888 71° East 588 677 35,000  Level FlightAware
Mon 09:24:00 PM 43.1532 -49.3827 71° East 588 677 35,000  Level FlightAware
Mon 09:25:00 PM 43.2035 -49.1763 72° East 588 677 35,000  Level FlightAware
Mon 09:26:00 PM 43.3031 -48.7623 72° East 573 659 35,000  Level FlightAware
Mon 09:27:00 PM 43.3235 -48.6913 72° East 571 657 35,000  Level FlightAware
Mon 09:28:00 PM 43.3733 -48.4803 72° East 571 657 35,000  Level FlightAware
Mon 09:29:00 PM 43.4227 -48.2690 72° East 571 657 35,000  Level FlightAware
Mon 09:30:00 PM 43.4718 -48.0573 72° East 571 657 35,000  Level FlightAware
Mon 09:31:00 PM 43.5204 -47.8452 73° East 571 657 35,000  Level FlightAware
Mon 09:32:00 PM 43.5686 -47.6329 73° East 571 657 35,000  Level FlightAware
Mon 09:33:00 PM 43.6165 -47.4201 73° East 571 657 35,000  Level FlightAware
Mon 09:34:00 PM 43.6639 -47.2071 73° East 571 657 35,000  Level FlightAware
Mon 09:34:30 PM 43.7000 -47.0667 73° East 572 658 35,000  Level New Oceanic
Mon 09:35:00 PM 43.7110 -46.9937 73° East 571 657 35,000  Level FlightAware
Mon 09:36:00 PM 43.7576 -46.7800 73° East 571 657 35,000  Level FlightAware
Mon 09:37:00 PM 43.8039 -46.5659 73° East 571 657 35,000  Level FlightAware
Mon 09:38:00 PM 43.8497 -46.3515 74° East 571 657 35,000  Level FlightAware
Mon 09:39:00 PM 43.8952 -46.1368 74° East 571 657 35,000  Level FlightAware
Mon 09:40:00 PM 43.9685 -45.8058 74° East 572 658 35,000  Level FlightAware
Mon 09:41:00 PM 44.0119 -45.5945 74° East 572 658 35,000  Level FlightAware
Mon 09:42:00 PM 44.0549 -45.3829 74° East 572 658 35,000  Level FlightAware
Mon 09:43:00 PM 44.0975 -45.1711 74° East 572 658 35,000  Level FlightAware
Mon 09:44:00 PM 44.1397 -44.9589 75° East 572 658 35,000  Level FlightAware
Mon 09:45:00 PM 44.1815 -44.7464 75° East 572 658 35,000  Level FlightAware
Mon 09:46:00 PM 44.2230 -44.5337 75° East 572 658 35,000  Level FlightAware
Mon 09:47:00 PM 44.2640 -44.3206 75° East 572 658 35,000  Level FlightAware
Mon 09:48:00 PM 44.3046 -44.1073 75° East 572 658 35,000  Level FlightAware
Mon 09:48:24 PM 44.3000 -44.1167 75° East 558 642 35,000  Level New Oceanic
Mon 09:49:00 PM 44.3449 -43.8936 75° East 572 658 35,000  Level FlightAware
Mon 09:50:00 PM 44.3847 -43.6796 75° East 572 658 35,000  Level FlightAware
Mon 09:51:00 PM 44.4242 -43.4654 76° East 572 658 35,000  Level FlightAware
Mon 09:52:00 PM 44.4632 -43.2509 76° East 572 658 35,000  Level FlightAware
Mon 09:53:00 PM 44.5018 -43.0361 76° East 572 658 35,000  Level FlightAware
Mon 09:54:00 PM 44.5255 -42.8922 76° East 558 642 35,000  Level FlightAware
Mon 09:55:00 PM 44.5618 -42.6872 76° East 558 642 35,000  Level FlightAware
Mon 09:56:00 PM 44.5977 -42.4820 76° East 558 642 35,000  Level FlightAware
Mon 09:57:00 PM 44.6333 -42.2765 76° East 558 642 35,000  Level FlightAware
Mon 09:58:00 PM 44.6685 -42.0708 77° East 558 642 35,000  Level FlightAware
Mon 09:59:00 PM 44.7033 -41.8648 77° East 558 642 35,000  Level FlightAware
Mon 10:00:00 PM 44.7378 -41.6585 77° East 558 642 35,000  Level FlightAware
Mon 10:01:00 PM 44.7719 -41.4520 77° East 558 642 35,000  Level FlightAware
Mon 10:02:00 PM 44.8056 -41.2453 77° East 558 642 35,000  Level FlightAware
Mon 10:03:00 PM 44.8389 -41.0384 77° East 558 642 35,000  Level FlightAware
Mon 10:04:00 PM 44.8719 -40.8312 77° East 558 642 35,000  Level FlightAware
Mon 10:05:00 PM 44.9045 -40.6237 78° East 558 642 35,000  Level FlightAware
Mon 10:06:00 PM 44.9367 -40.4160 78° East 558 642 35,000  Level FlightAware
Mon 10:07:00 PM 44.9685 -40.2081 78° East 558 642 35,000  Level FlightAware
Mon 10:08:00 PM 45.0000 -40.0000 70° East 558 642 35,000  Level FlightAware
Mon 10:09:00 PM 45.0537 -39.7860 71° East 558 642 35,000  Level FlightAware
Mon 10:10:00 PM 45.1070 -39.5716 71° East 558 642 35,000  Level FlightAware
Mon 10:11:00 PM 45.1599 -39.3568 71° East 558 642 35,000  Level FlightAware
Mon 10:12:00 PM 45.2124 -39.1415 71° East 558 642 35,000  Level FlightAware
Mon 10:13:00 PM 45.2645 -38.9259 71° East 558 642 35,000  Level FlightAware
Mon 10:14:00 PM 45.3162 -38.7099 71° East 558 642 35,000  Level FlightAware
Mon 10:15:00 PM 45.3675 -38.4936 71° East 558 642 35,000  Level FlightAware
Mon 10:16:00 PM 45.4184 -38.2768 72° East 558 642 35,000  Level FlightAware
Mon 10:17:00 PM 45.4688 -38.0596 72° East 558 642 35,000  Level FlightAware
Mon 10:18:00 PM 45.5189 -37.8420 72° East 558 642 35,000  Level FlightAware
Mon 10:19:00 PM 45.5685 -37.6241 72° East 558 642 35,000  Level FlightAware
Mon 10:20:00 PM 45.6177 -37.4058 72° East 558 642 35,000  Level FlightAware
Mon 10:21:00 PM 45.6665 -37.1870 72° East 558 642 35,000  Level FlightAware
Mon 10:22:00 PM 45.7149 -36.9679 73° East 558 642 35,000  Level FlightAware
Mon 10:23:00 PM 45.7629 -36.7485 73° East 558 642 35,000  Level FlightAware
Mon 10:24:00 PM 45.8104 -36.5286 73° East 558 642 35,000  Level FlightAware
Mon 10:25:00 PM 45.8576 -36.3084 73° East 558 642 35,000  Level FlightAware
Mon 10:26:00 PM 45.9043 -36.0878 73° East 558 642 35,000  Level FlightAware
Mon 10:27:00 PM 45.9505 -35.8669 73° East 558 642 35,000  Level FlightAware
Mon 10:28:00 PM 45.9964 -35.6455 73° East 558 642 35,000  Level FlightAware
Mon 10:29:00 PM 46.0418 -35.4238 74° East 558 642 35,000  Level FlightAware
Mon 10:30:00 PM 46.0868 -35.2018 74° East 558 642 35,000  Level FlightAware
Mon 10:31:00 PM 46.1313 -34.9794 74° East 558 642 35,000  Level FlightAware
Mon 10:32:00 PM 46.1755 -34.7566 74° East 558 642 35,000  Level FlightAware
Mon 10:33:00 PM 46.2192 -34.5334 74° East 558 642 35,000  Level FlightAware
Mon 10:34:00 PM 46.2624 -34.3100 74° East 558 642 35,000  Level FlightAware
Mon 10:35:00 PM 46.3052 -34.0861 75° East 558 642 35,000  Level FlightAware
Mon 10:36:00 PM 46.3476 -33.8619 75° East 558 642 35,000  Level FlightAware
Mon 10:37:00 PM 46.3896 -33.6374 75° East 558 642 35,000  Level FlightAware
Mon 10:38:00 PM 46.4311 -33.4125 75° East 558 642 35,000  Level FlightAware
Mon 10:39:00 PM 46.4721 -33.1873 75° East 558 642 35,000  Level FlightAware
Mon 10:40:00 PM 46.5128 -32.9617 75° East 558 642 35,000  Level FlightAware
Mon 10:41:00 PM 46.5530 -32.7359 76° East 558 642 35,000  Level FlightAware
Mon 10:42:00 PM 46.5927 -32.5096 76° East 558 642 35,000  Level FlightAware
Mon 10:43:00 PM 46.6320 -32.2831 76° East 558 642 35,000  Level FlightAware
Mon 10:44:00 PM 46.6708 -32.0562 76° East 558 642 35,000  Level FlightAware
Mon 10:45:00 PM 46.7092 -31.8290 76° East 558 642 35,000  Level FlightAware
Mon 10:46:00 PM 46.7471 -31.6014 76° East 558 642 35,000  Level FlightAware
Mon 10:47:00 PM 46.7846 -31.3736 77° East 558 642 35,000  Level FlightAware
Mon 10:48:00 PM 46.8217 -31.1454 77° East 558 642 35,000  Level FlightAware
Mon 10:49:00 PM 46.8582 -30.9170 77° East 558 642 35,000  Level FlightAware
Mon 10:50:00 PM 46.8944 -30.6882 77° East 558 642 35,000  Level FlightAware
Mon 10:51:00 PM 46.9300 -30.4591 77° East 558 642 35,000  Level FlightAware
Mon 10:52:00 PM 46.9652 -30.2297 77° East 558 642 35,000  Level FlightAware
Mon 10:53:00 PM 47.0243 -30.0362 66° East  Level Estimated
Mon 10:54:00 PM 47.0831 -29.8418 66° East  Level Estimated
Mon 10:55:00 PM 47.1416 -29.6470 66° East  Level Estimated
Mon 10:56:00 PM 47.1998 -29.4517 66° East  Level Estimated
Mon 10:57:00 PM 47.2576 -29.2560 66° East  Level Estimated
Mon 10:58:00 PM 47.3152 -29.0599 67° East  Level Estimated
Mon 10:59:00 PM 47.3723 -28.8633 67° East  Level Estimated
Mon 11:00:00 PM 47.4292 -28.6664 67° East  Level Estimated
Mon 11:01:00 PM 47.4857 -28.4690 67° East  Level Estimated
Mon 11:02:00 PM 47.5418 -28.2712 67° East  Level Estimated
Mon 11:03:00 PM 47.5976 -28.0729 67° East  Level Estimated
Mon 11:04:00 PM 47.6531 -27.8742 67° East  Level Estimated
Mon 11:05:00 PM 47.7083 -27.6751 68° East  Level Estimated
Mon 11:06:00 PM 47.7631 -27.4756 68° East  Level Estimated
Mon 11:07:00 PM 47.8175 -27.2757 68° East  Level Estimated
Mon 11:08:00 PM 47.8716 -27.0754 68° East  Level Estimated
Mon 11:09:00 PM 47.9254 -26.8746 68° East  Level Estimated
Mon 11:10:00 PM 47.9788 -26.6734 68° East  Level Estimated
Mon 11:11:00 PM 48.0318 -26.4718 68° East  Level Estimated
Mon 11:12:00 PM 48.0845 -26.2698 69° East  Level Estimated
Mon 11:13:00 PM 48.1368 -26.0674 69° East  Level Estimated
Mon 11:14:00 PM 48.1888 -25.8646 69° East  Level Estimated
Mon 11:15:00 PM 48.2404 -25.6613 69° East  Level Estimated
Mon 11:16:00 PM 48.2917 -25.4577 69° East  Level Estimated
Mon 11:17:00 PM 48.3426 -25.2536 69° East  Level Estimated
Mon 11:18:00 PM 48.3932 -25.0491 70° East  Level Estimated
Mon 11:19:00 PM 48.4433 -24.8443 70° East  Level Estimated
Mon 11:20:00 PM 48.4932 -24.6390 70° East  Level Estimated
Mon 11:21:00 PM 48.5426 -24.4333 70° East  Level Estimated
Mon 11:22:00 PM 48.5917 -24.2272 70° East  Level Estimated
Mon 11:23:00 PM 48.6404 -24.0208 70° East  Level Estimated
Mon 11:24:00 PM 48.6888 -23.8139 70° East  Level Estimated
Mon 11:25:00 PM 48.7367 -23.6066 71° East  Level Estimated
Mon 11:26:00 PM 48.7843 -23.3989 71° East  Level Estimated
Mon 11:27:00 PM 48.8316 -23.1909 71° East  Level Estimated
Mon 11:28:00 PM 48.8784 -22.9824 71° East  Level Estimated
Mon 11:29:00 PM 48.9249 -22.7736 71° East  Level Estimated
Mon 11:30:00 PM 48.9710 -22.5644 71° East  Level Estimated
Mon 11:31:00 PM 49.0167 -22.3547 72° East  Level Estimated
Mon 11:32:00 PM 49.0620 -22.1447 72° East  Level Estimated
Mon 11:33:00 PM 49.1070 -21.9344 72° East  Level Estimated
Mon 11:34:00 PM 49.1516 -21.7236 72° East  Level Estimated
Mon 11:35:00 PM 49.1960 -21.5113 72° East  Level Estimated
Mon 11:36:00 PM 49.2401 -21.2986 72° East  Level Estimated
Mon 11:37:00 PM 49.2837 -21.0855 72° East  Level Estimated
Mon 11:38:00 PM 49.3270 -20.8721 73° East  Level Estimated
Mon 11:39:00 PM 49.3698 -20.6583 73° East  Level Estimated
Mon 11:40:00 PM 49.4123 -20.4441 73° East  Level Estimated
Mon 11:41:00 PM 49.4544 -20.2295 73° East  Level Estimated
Mon 11:42:00 PM 49.4961 -20.0146 73° East  Level Estimated
Mon 11:43:00 PM 49.5373 -19.7993 73° East  Level Estimated
Mon 11:44:00 PM 49.5782 -19.5836 74° East  Level Estimated
Mon 11:45:00 PM 49.6187 -19.3676 74° East  Level Estimated
Mon 11:46:00 PM 49.6588 -19.1513 74° East  Level Estimated
Mon 11:47:00 PM 49.6985 -18.9345 74° East  Level Estimated
Mon 11:48:00 PM 49.7377 -18.7174 74° East  Level Estimated
Mon 11:49:00 PM 49.7766 -18.5000 74° East  Level Estimated
Mon 11:50:00 PM 49.8150 -18.2822 75° East  Level Estimated
Mon 11:51:00 PM 49.8531 -18.0641 75° East  Level Estimated
Mon 11:52:00 PM 49.8907 -17.8457 75° East  Level Estimated
Mon 11:53:00 PM 49.9279 -17.6269 75° East  Level Estimated
Mon 11:54:00 PM 49.9647 -17.4077 75° East  Level Estimated
Mon 11:55:00 PM 50.0011 -17.1882 75° East  Level Estimated
Mon 11:56:00 PM 50.0371 -16.9685 76° East  Level Estimated
Mon 11:57:00 PM 50.0727 -16.7483 76° East  Level Estimated
Mon 11:58:00 PM 50.1078 -16.5279 76° East  Level Estimated
Mon 11:59:00 PM 50.1426 -16.3071 76° East  Level Estimated
Tue 12:00:00 AM 50.1769 -16.0860 76° East  Level Estimated
Tue 12:01:00 AM 50.2108 -15.8646 76° East  Level Estimated
Tue 12:02:00 AM 50.2442 -15.6429 77° East  Level Estimated
Tue 12:03:00 AM 50.2773 -15.4208 77° East  Level Estimated
Tue 12:04:00 AM 50.3099 -15.1985 77° East  Level Estimated
Tue 12:05:00 AM 50.3421 -14.9759 77° East  Level Estimated
Tue 12:06:00 AM 50.3739 -14.7529 77° East  Level Estimated
Tue 12:07:00 AM 50.4053 -14.5297 77° East  Level Estimated
Tue 12:08:00 AM 50.4362 -14.3062 78° East  Level Estimated
Tue 12:09:00 AM 50.4667 -14.0823 78° East  Level Estimated
Tue 12:10:00 AM 50.4967 -13.8582 78° East  Level Estimated
Tue 12:11:00 AM 50.5263 -13.6338 78° East  Level Estimated
Tue 12:12:00 AM 50.5555 -13.4092 78° East  Level Estimated
Tue 12:13:00 AM 50.5843 -13.1842 79° East  Level Estimated
Tue 12:14:00 AM 50.6127 -12.9590 79° East  Level Estimated
Tue 12:15:00 AM 50.6405 -12.7335 79° East  Level Estimated
Tue 12:16:00 AM 50.6680 -12.5077 79° East  Level Estimated
Tue 12:17:00 AM 50.6950 -12.2817 79° East  Level Estimated
Tue 12:18:00 AM 50.7216 -12.0554 79° East  Level Estimated
Tue 12:19:00 AM 50.7478 -11.8289 80° East  Level Estimated
Tue 12:20:00 AM 50.7735 -11.6021 80° East  Level Estimated
Tue 12:21:00 AM 50.7988 -11.3751 80° East  Level Estimated
Tue 12:21:08 AM 49.7896 -8.9856 80° East 478 550 35,000  Level FlightAware
Tue 12:21:38 AM 49.8037 -8.8682 79° East 478 550 35,000  Level FlightAware
Tue 12:22:08 AM 49.8174 -8.7507 80° East 478 550 35,000  Level FlightAware
Tue 12:22:38 AM 49.8349 -8.6345 77° East 478 550 35,000  Level FlightAware
Tue 12:23:08 AM 49.8582 -8.5203 72° East 478 550 35,000  Level FlightAware
Tue 12:23:38 AM 49.8793 -8.4054 74° East 478 550 35,000  Level FlightAware
Tue 12:24:08 AM 49.8998 -8.2892 75° East 478 550 35,000  Level FlightAware
Tue 12:24:38 AM 49.9197 -8.1733 75° East 478 550 35,000  Level FlightAware
Tue 12:24:52 AM 49.9260 -8.1390 75° East 557 641 35,000  Level FlightAware
Tue 12:25:08 AM 49.9390 -8.0570 75° East 478 550 35,000  Level FlightAware
Tue 12:25:37 AM 49.9550 -7.9610 76° East 558 642 35,000  Level FlightAware
Tue 12:25:38 AM 49.9580 -7.9404 76° East 480 552 35,000  Level FlightAware
Tue 12:26:08 AM 49.9771 -7.8237 76° East 480 552 35,000  Level FlightAware
Tue 12:26:17 AM 49.9810 -7.8090 76° East 559 643 35,000  Level FlightAware
Tue 12:26:38 AM 49.9967 -7.7073 76° East 482 555 35,000  Level FlightAware
Tue 12:27:02 AM 50.0120 -7.6250 76° East 556 640 35,000  Level FlightAware
Tue 12:27:39 AM 50.0363 -7.4741 76° East 482 555 35,000  Level FlightAware
Tue 12:27:42 AM 50.0380 -7.4660 76° East 554 638 35,000  Level FlightAware
Tue 12:28:09 AM 50.0556 -7.3579 76° East 482 555 35,000  Level FlightAware
Tue 12:28:22 AM 50.0630 -7.3160 76° East 552 635 35,000  Level FlightAware
Tue 12:28:39 AM 50.0747 -7.2421 76° East 480 552 35,000  Level FlightAware
Tue 12:29:06 AM 50.0900 -7.1510 75° East 552 635 35,000  Level FlightAware
Tue 12:29:09 AM 50.0940 -7.1267 75° East 480 552 35,000  Level FlightAware
Tue 12:29:39 AM 50.1128 -7.0112 75° East 480 552 35,000  Level FlightAware
Tue 12:29:47 AM 50.1170 -6.9850 75° East 552 635 35,000  Level FlightAware
Tue 12:30:09 AM 50.1315 -6.8956 75° East 482 555 35,000  Level FlightAware
Tue 12:30:32 AM 50.1450 -6.8130 76° East 549 632 35,000  Level FlightAware
Tue 12:30:39 AM 50.1501 -6.7792 76° East 484 557 35,000  Level FlightAware
Tue 12:31:09 AM 50.1686 -6.6638 76° East 480 552 35,000  Level FlightAware
Tue 12:31:11 AM 50.1690 -6.6640 76° East 550 633 35,000  Level FlightAware
Tue 12:31:39 AM 50.1874 -6.5490 76° East 482 555 35,000  Level FlightAware
Tue 12:31:57 AM 50.1970 -6.4870 76° East 550 633 35,000  Level FlightAware
Tue 12:32:37 AM 50.2220 -6.3310 76° East 549 632 35,000  Level FlightAware
Tue 12:32:39 AM 50.2236 -6.3190 76° East 482 555 35,000  Level FlightAware
Tue 12:33:09 AM 50.2417 -6.2037 76° East 482 555 35,000  Level FlightAware
Tue 12:33:22 AM 50.2490 -6.1600 76° East 549 632 35,000  Level FlightAware
Tue 12:33:39 AM 50.2601 -6.0868 76° East 484 557 35,000 -308 Level FlightAware
Tue 12:34:01 AM 50.2720 -6.0080 76° East 543 625 34,800 -1,500 Descending FlightAware
Tue 12:34:39 AM 50.2950 -5.8568 76° East 482 555 33,500 -1,902 Descending FlightAware
Tue 12:34:42 AM 50.2960 -5.8500 76° East 558 642 33,500 -1,200 Level FlightAware
Tue 12:35:09 AM 50.3131 -5.7380 76° East 492 566 32,900 -667 Descending FlightAware
Tue 12:35:27 AM 50.3220 -5.6800 76° East 558 642 33,000 103 Climbing FlightAware
Tue 12:36:07 AM 50.3470 -5.5160 76° East 552 635 33,000 -143 Level FlightAware
Tue 12:36:09 AM 50.3483 -5.5021 76° East 488 562 32,900  Descending FlightAware
Tue 12:36:39 AM 50.3656 -5.3855 76° East 484 557 33,000 158 Climbing FlightAware
Tue 12:36:47 AM 50.3690 -5.3630 76° East 550 633 33,000  Level FlightAware
Tue 12:37:15 AM 50.3857 -5.2466 76° East 486 559 33,000  Level FlightAware
Tue 12:37:32 AM 50.3950 -5.1860 76° East 549 632 33,000  Level FlightAware
Tue 12:38:13 AM 50.4170 -5.0300 76° East 543 625 33,000  Level FlightAware
Tue 12:38:15 AM 50.4200 -5.0136 76° East 488 562 33,000  Level FlightAware
Tue 12:38:51 AM 50.4391 -4.8771 76° East 486 559 33,000  Level FlightAware
Tue 12:38:52 AM 50.4390 -4.8790 76° East 541 623 33,000  Level FlightAware
Tue 12:39:21 AM 50.4553 -4.7625 76° East 488 562 33,000  Level FlightAware
Tue 12:39:35 AM 50.4610 -4.7230 76° East 534 615 33,000  Level FlightAware
Tue 12:39:51 AM 50.4713 -4.6493 76° East 484 557 33,000  Level FlightAware
Tue 12:40:18 AM 50.4850 -4.5560 77° East 531 611 33,000  Level FlightAware
Tue 12:40:21 AM 50.4872 -4.5364 77° East 486 559 33,000  Level FlightAware
Tue 12:40:52 AM 50.5030 -4.4230 77° East 486 559 33,000  Level FlightAware
Tue 12:41:03 AM 50.5080 -4.3860 77° East 529 609 33,000  Level FlightAware
Tue 12:41:22 AM 50.5184 -4.3108 77° East 484 557 33,000  Level FlightAware
Tue 12:41:43 AM 50.5290 -4.2370 77° East 525 604 33,000  Level FlightAware
Tue 12:41:58 AM 50.5366 -4.1765 77° East 484 557 33,000  Level FlightAware
Tue 12:42:26 AM 50.5510 -4.0739 77° East 523 602 33,000  Level FlightAware
Tue 12:42:56 AM 50.5664 -3.9593 78° East 522 601 33,000  Level FlightAware
Tue 12:43:28 AM 50.5818 -3.8425 78° East 484 557 33,000  Level FlightAware
Tue 12:43:30 AM 50.5828 -3.8367 78° East 519 597 33,000  Level FlightAware
Tue 12:43:58 AM 50.5964 -3.7318 78° East 486 559 33,000  Level FlightAware
Tue 12:44:01 AM 50.5978 -3.7229 78° East 518 596 33,000  Level FlightAware
Tue 12:44:28 AM 50.6107 -3.6216 78° East 486 559 33,000  Level FlightAware
Tue 12:44:33 AM 50.6134 -3.6037 78° East 516 594 33,000 -200 Level FlightAware
Tue 12:44:58 AM 50.6252 -3.5123 78° East 484 557 32,900 -194 Descending FlightAware
Tue 12:45:04 AM 50.6281 -3.4912 78° East 513 590 32,900 -1,000 Level FlightAware
Tue 12:45:28 AM 50.6392 -3.4029 78° East 486 559 32,400 -1,161 Descending FlightAware
Tue 12:45:35 AM 50.6425 -3.3792 78° East 513 590 32,300 -1,000 Descending FlightAware
Tue 12:45:58 AM 50.6532 -3.2934 78° East 490 564 31,900 -800 Descending FlightAware
Tue 12:46:05 AM 50.6567 -3.2685 78° East 509 586 31,900 -1,000 Level FlightAware
Tue 12:46:28 AM 50.6671 -3.1845 78° East 488 562 31,400 -1,200 Descending FlightAware
Tue 12:46:35 AM 50.6705 -3.1599 78° East 506 582 31,300 -1,800 Descending FlightAware
Tue 12:46:58 AM 50.6810 -3.0754 78° East 484 557 30,500 -2,000 Descending FlightAware
Tue 12:47:05 AM 50.6844 -3.0497 78° East 509 586 30,300 -1,200 Descending FlightAware
Tue 12:47:28 AM 50.6948 -2.9673 78° East 480 552 29,900 -1,161 Descending FlightAware
Tue 12:47:36 AM 50.6974 -2.9414 78° East 500 575 29,700 -1,600 Descending FlightAware
Tue 12:47:58 AM 50.7036 -2.8589 78° East 476 548 29,100 -1,600 Descending FlightAware
Tue 12:48:06 AM 50.7052 -2.8326 78° East 494 568 28,900 -1,800 Descending FlightAware
Tue 12:48:28 AM 50.7101 -2.7516 78° East 470 541 28,200 -1,548 Descending FlightAware
Tue 12:48:37 AM 50.7120 -2.7215 78° East 490 564 28,100 -1,200 Descending FlightAware
Tue 12:48:58 AM 50.7165 -2.6452 78° East 468 539 27,600 -1,297 Descending FlightAware
Tue 12:49:14 AM 50.7199 -2.5911 78° East 486 559 27,300 -1,000 Descending FlightAware
Tue 12:49:34 AM 50.7241 -2.5198 78° East 460 529 27,000 -600 Descending FlightAware
Tue 12:49:44 AM 50.7263 -2.4856 78° East 480 552 27,000 -200 Level FlightAware
Tue 12:50:04 AM 50.7304 -2.4153 78° East 462 532 26,900  Descending FlightAware
Tue 12:50:15 AM 50.7325 -2.3805 78° East 480 552 27,000  Climbing FlightAware
Tue 12:50:35 AM 50.7366 -2.3102 78° East 462 532 26,900 -600 Descending FlightAware
Tue 12:50:45 AM 50.7386 -2.2736 78° East 475 547 26,700 -2,400 Descending FlightAware
Tue 12:51:10 AM 50.7435 -2.1865 78° East 456 525 25,500 -2,516 Descending FlightAware
Tue 12:51:16 AM 50.7447 -2.1691 78° East 472 543 25,400 -2,000 Descending FlightAware
Tue 12:51:40 AM 50.7496 -2.0841 78° East 446 513 24,500 -2,118 Descending FlightAware
Tue 12:51:50 AM 50.7514 -2.0545 78° East 465 535 24,200 -2,200 Descending FlightAware
Tue 12:52:10 AM 50.7553 -1.9840 78° East 440 506 23,400 -2,200 Descending FlightAware
Tue 12:52:20 AM 50.7573 -1.9528 78° East 460 529 23,100 -2,129 Descending FlightAware
Tue 12:52:41 AM 50.7639 -1.8838 78° East 434 499 22,300 -2,182 Descending FlightAware
Tue 12:52:42 AM 50.7642 -1.8807 78° East 456 525 22,300 -2,000 Level FlightAware
Tue 12:53:14 AM 50.7804 -1.7797 76° East 448 516 21,200 -2,129 Descending FlightAware
Tue 12:53:44 AM 50.7953 -1.6831 76° East 440 506 20,100 -2,164 Descending FlightAware
Tue 12:54:15 AM 50.8097 -1.5889 76° East 431 496 19,000 -2,129 Descending FlightAware
Tue 12:54:46 AM 50.8244 -1.4966 76° East 425 489 17,900 -2,164 Descending FlightAware
Tue 12:55:16 AM 50.8393 -1.4064 75° East 415 478 16,800 -2,164 Descending FlightAware
Tue 12:55:47 AM 50.8536 -1.3171 76° East 410 472 15,700 -1,967 Descending FlightAware
Tue 12:56:17 AM 50.8679 -1.2308 75° East 403 464 14,800 -1,800 Descending FlightAware
Tue 12:56:27 AM 50.8729 -1.2031 74° East 403 464 14,500 -1,412 Descending FlightAware
Tue 12:56:34 AM 50.8779 -1.1824 69° East 401 461 14,400 -1,200 Descending FlightAware
Tue 12:56:42 AM 50.8843 -1.1610 65° Northeast 396 456 14,200 -1,125 Descending FlightAware
Tue 12:56:50 AM 50.8907 -1.1433 60° Northeast 392 451 14,100 -800 Descending FlightAware
Tue 12:56:57 AM 50.8981 -1.1257 56° Northeast 388 447 14,000 -750 Descending FlightAware
Tue 12:57:06 AM 50.9076 -1.1064 52° Northeast 382 440 13,900 -769 Descending FlightAware
Tue 12:57:36 AM 50.9430 -1.0470 47° Northeast 364 419 13,500 -800 Descending FlightAware
Tue 12:58:06 AM 50.9777 -0.9904 46° Northeast 346 398 13,100 -492 Descending FlightAware
Tue 12:58:37 AM 51.0100 -0.9377 46° Northeast 320 368 13,000 -255 Descending FlightAware
Tue 12:58:53 AM 51.0266 -0.9102 46° Northeast 284 327 12,900  Descending FlightAware
Tue 12:59:07 AM 51.0397 -0.8887 46° Northeast 293 337 13,000 200 Climbing FlightAware
Tue 12:59:23 AM 51.0548 -0.8635 46° Northeast 270 311 13,000  Level FlightAware
Tue 12:59:37 AM 51.0678 -0.8423 46° Northeast 288 331 13,000  Level FlightAware
Tue 12:59:59 AM 51.0878 -0.8088 46° Northeast 268 308 13,000  Level FlightAware
Tue 01:00:08 AM 51.0956 -0.7961 46° Northeast 289 333 13,000  Level FlightAware
Tue 01:00:29 AM 51.1154 -0.7629 46° Northeast 270 311 13,000  Level FlightAware
Tue 01:00:38 AM 51.1238 -0.7494 46° Northeast 289 333 13,000  Level FlightAware
Tue 01:00:59 AM 51.1431 -0.7169 46° Northeast 268 308 13,000 -194 Level FlightAware
Tue 01:01:09 AM 51.1519 -0.7029 46° Northeast 287 330 12,900 -1,000 Descending FlightAware
Tue 01:01:29 AM 51.1708 -0.6709 46° Northeast 266 306 12,500 -1,000 Descending FlightAware
Tue 01:01:39 AM 51.1793 -0.6573 46° Northeast 284 327 12,400 -1,200 Descending FlightAware
Tue 01:01:59 AM 51.1982 -0.6251 46° Northeast 264 304 11,900 -1,200 Descending FlightAware
Tue 01:02:09 AM 51.2069 -0.6113 46° Northeast 284 327 11,800 -1,167 Descending FlightAware
Tue 01:02:35 AM 51.2305 -0.5714 46° Northeast 262 302 11,200 -1,161 Descending FlightAware
Tue 01:02:40 AM 51.2342 -0.5657 46° Northeast 282 325 11,200 -800 Level FlightAware
Tue 01:03:05 AM 51.2575 -0.5265 46° Northeast 260 299 10,800 -1,000 Descending FlightAware
Tue 01:03:10 AM 51.2614 -0.5203 46° Northeast 280 322 10,700 -1,161 Descending FlightAware
Tue 01:03:36 AM 51.2846 -0.4811 46° Northeast 258 297 10,200 -1,034 Descending FlightAware
Tue 01:03:39 AM 51.2879 -0.4761 46° Northeast 280 322 10,200 -947 Level FlightAware
Tue 01:03:55 AM 51.3014 -0.4536 46° Northeast 279 321 9,900 -1,161 Descending FlightAware
Tue 01:04:10 AM 51.3148 -0.4309 47° Northeast 277 319 9,600 -1,071 Descending FlightAware
Tue 01:04:23 AM 51.3264 -0.4110 47° Northeast 275 316 9,400 -1,125 Descending FlightAware
Tue 01:04:26 AM 51.3291 -0.4057 51° Northeast 272 313 9,300 -1,200 Descending FlightAware
Tue 01:04:33 AM 51.3332 -0.3954 58° Northeast 267 307 9,200 -600 Descending FlightAware
Tue 01:04:36 AM 51.3346 -0.3899 68° East 264 304 9,200  Level FlightAware
Tue 01:04:39 AM 51.3359 -0.3838 71° East 260 299 9,200 -857 Level FlightAware
Tue 01:04:43 AM 51.3368 -0.3769 78° East 257 296 9,100 -1,714 Descending FlightAware
Tue 01:04:46 AM 51.3372 -0.3698 85° East 255 293 9,000 -1,333 Descending FlightAware
Tue 01:04:52 AM 51.3369 -0.3595 93° East 252 290 8,900 -1,333 Descending FlightAware
Tue 01:04:55 AM 51.3360 -0.3532 103° East 249 287 8,800 -1,714 Descending FlightAware
Tue 01:04:59 AM 51.3345 -0.3463 109° East 247 284 8,700 -1,500 Descending FlightAware
Tue 01:05:03 AM 51.3325 -0.3400 117° Southeast 245 282 8,600 -1,333 Descending FlightAware
Tue 01:05:08 AM 51.3290 -0.3323 126° Southeast 243 280 8,500 -1,333 Descending FlightAware
Tue 01:05:12 AM 51.3260 -0.3275 135° Southeast 241 277 8,400 -1,714 Descending FlightAware
Tue 01:05:15 AM 51.3233 -0.3241 142° Southeast 240 276 8,300 -1,500 Descending FlightAware
Tue 01:05:20 AM 51.3187 -0.3199 151° Southeast 237 273 8,200 -1,333 Descending FlightAware
Tue 01:05:24 AM 51.3143 -0.3173 159° South 235 270 8,100 -857 Descending FlightAware
Tue 01:05:34 AM 51.3041 -0.3160 176° South 233 268 8,000 -429 Descending FlightAware
Tue 01:05:38 AM 51.2999 -0.3172 190° South 233 268 8,000  Level FlightAware
Tue 01:05:41 AM 51.2964 -0.3190 198° South 232 267 8,000  Level FlightAware
Tue 01:05:45 AM 51.2930 -0.3217 206° Southwest 231 266 8,000  Level FlightAware
Tue 01:05:49 AM 51.2895 -0.3255 214° Southwest 230 265 8,000  Level FlightAware
Tue 01:05:53 AM 51.2864 -0.3300 222° Southwest 230 265 8,000  Level FlightAware
Tue 01:05:56 AM 51.2843 -0.3340 231° Southwest 229 264 8,000  Level FlightAware
Tue 01:06:02 AM 51.2810 -0.3429 239° Southwest 231 266 8,000  Level FlightAware
Tue 01:06:06 AM 51.2795 -0.3488 248° West 232 267 8,000  Level FlightAware
Tue 01:06:09 AM 51.2786 -0.3550 257° West 234 269 8,000 -857 Level FlightAware
Tue 01:06:13 AM 51.2782 -0.3622 265° West 237 273 7,900 -857 Descending FlightAware
Tue 01:06:16 AM 51.2782 -0.3677 270° West 240 276 7,900 -857 Level FlightAware
Tue 01:06:20 AM 51.2788 -0.3748 278° West 244 281 7,800 -1,333 Descending FlightAware
Tue 01:06:25 AM 51.2802 -0.3826 286° West 248 285 7,700 -1,333 Descending FlightAware
Tue 01:06:29 AM 51.2822 -0.3895 295° West 252 290 7,600 -1,714 Descending FlightAware
Tue 01:06:32 AM 51.2840 -0.3944 300° West 254 292 7,500 -857 Descending FlightAware
Tue 01:06:36 AM 51.2869 -0.4004 308° West 256 295 7,500 -750 Level FlightAware
Tue 01:06:40 AM 51.2905 -0.4059 316° Northwest 260 299 7,400 -1,333 Descending FlightAware
Tue 01:06:45 AM 51.2960 -0.4122 324° Northwest 262 302 7,300 -600 Descending FlightAware
Tue 01:06:50 AM 51.3005 -0.4157 334° Northwest 263 303 7,300 -600 Level FlightAware
Tue 01:06:55 AM 51.3074 -0.4190 343° North 266 306 7,200 -1,333 Descending FlightAware
Tue 01:06:59 AM 51.3120 -0.4201 352° North 266 306 7,100 -750 Descending FlightAware
Tue 01:07:03 AM 51.3168 -0.4202 359° North 267 307 7,100 -750 Level FlightAware
Tue 01:07:07 AM 51.3216 -0.4192 North 267 307 7,000 -857 Descending FlightAware
Tue 01:07:10 AM 51.3257 -0.4176 14° North 267 307 7,000  Level FlightAware
Tue 01:07:14 AM 51.3295 -0.4153 21° North 266 306 7,000  Level FlightAware
Tue 01:07:19 AM 51.3349 -0.4107 28° Northeast 265 305 7,000  Level FlightAware
Tue 01:07:22 AM 51.3386 -0.4066 35° Northeast 265 305 7,000  Level FlightAware
Tue 01:07:26 AM 51.3414 -0.4025 43° Northeast 265 305 7,000  Level FlightAware
Tue 01:07:29 AM 51.3439 -0.3980 48° Northeast 265 305 7,000  Level FlightAware
Tue 01:07:33 AM 51.3467 -0.3918 54° Northeast 265 305 7,000  Level FlightAware
Tue 01:07:36 AM 51.3490 -0.3852 61° Northeast 264 304 7,000  Level FlightAware
Tue 01:07:40 AM 51.3508 -0.3784 67° East 263 303 7,000  Level FlightAware
Tue 01:07:44 AM 51.3525 -0.3710 70° East 262 302 7,000  Level FlightAware
Tue 01:07:58 AM 51.3573 -0.3445 74° East 262 302 7,000 -200 Level FlightAware
Tue 01:08:14 AM 51.3622 -0.3156 75° East 262 302 6,900 -581 Descending FlightAware
Tue 01:08:29 AM 51.3669 -0.2869 75° East 261 300 6,700 -968 Descending FlightAware
Tue 01:08:45 AM 51.3716 -0.2586 75° East 258 297 6,400 -960 Descending FlightAware
Tue 01:08:54 AM 51.3742 -0.2420 76° East 256 295 6,300 -800 Descending FlightAware
Tue 01:09:00 AM 51.3758 -0.2299 78° East 257 296 6,200 -900 Descending FlightAware
Tue 01:09:14 AM 51.3784 -0.2045 81° East 256 295 6,000 -923 Descending FlightAware
Tue 01:09:26 AM 51.3806 -0.1818 81° East 255 293 5,800 -750 Descending FlightAware
Tue 01:09:38 AM 51.3829 -0.1602 80° East 253 291 5,700 -692 Descending FlightAware
Tue 01:09:52 AM 51.3858 -0.1331 80° East 253 291 5,500 -960 Descending FlightAware
Tue 01:10:03 AM 51.3881 -0.1126 80° East 253 291 5,300 -900 Descending FlightAware
Tue 01:10:12 AM 51.3909 -0.0964 74° East 256 295 5,200 -462 Descending FlightAware
Tue 01:10:16 AM 51.3926 -0.0906 65° Northeast 257 296 5,200 -857 Level FlightAware
Tue 01:10:19 AM 51.3944 -0.0858 59° Northeast 256 295 5,100 -1,000 Descending FlightAware
Tue 01:10:22 AM 51.3966 -0.0809 55° Northeast 254 292 5,100 -1,000 Level FlightAware
Tue 01:10:25 AM 51.3991 -0.0765 47° Northeast 250 288 5,000 -857 Descending FlightAware
Tue 01:10:29 AM 51.4019 -0.0727 41° Northeast 244 281 5,000 -857 Level FlightAware
Tue 01:10:32 AM 51.4047 -0.0696 35° Northeast 239 275 4,900 -1,000 Descending FlightAware
Tue 01:10:35 AM 51.4079 -0.0671 26° Northeast 234 269 4,900 -857 Level FlightAware
Tue 01:10:39 AM 51.4112 -0.0650 22° Northeast 227 261 4,800 -857 Descending FlightAware
Tue 01:10:42 AM 51.4143 -0.0637 14° North 222 255 4,800  Level FlightAware
Tue 01:10:46 AM 51.4184 -0.0628 North 217 250 4,800 -750 Level FlightAware
Tue 01:10:50 AM 51.4224 -0.0624 North 214 246 4,700 -1,000 Descending FlightAware
Tue 01:10:58 AM 51.4308 -0.0623 North 212 244 4,600 -750 Descending FlightAware
Tue 01:11:06 AM 51.4386 -0.0627 358° North 209 241 4,500 -1,000 Descending FlightAware
Tue 01:11:10 AM 51.4424 -0.0637 351° North 208 239 4,400 -750 Descending FlightAware
Tue 01:11:14 AM 51.4461 -0.0656 342° North 207 238 4,400 -857 Level FlightAware
Tue 01:11:17 AM 51.4488 -0.0677 335° Northwest 205 236 4,300 -857 Descending FlightAware
Tue 01:11:21 AM 51.4518 -0.0710 326° Northwest 203 234 4,300 -667 Level FlightAware
Tue 01:11:26 AM 51.4548 -0.0758 315° West 199 229 4,200 -667 Descending FlightAware
Tue 01:11:30 AM 51.4571 -0.0806 307° West 195 224 4,200 -750 Level FlightAware
Tue 01:11:34 AM 51.4589 -0.0854 301° West 193 222 4,100 -857 Descending FlightAware
Tue 01:11:37 AM 51.4601 -0.0896 295° West 192 221 4,100 -400 Level FlightAware
Tue 01:11:49 AM 51.4632 -0.1047 288° West 188 216 4,000 -750 Descending FlightAware
Tue 01:11:53 AM 51.4639 -0.1099 282° West 188 216 3,900 -750 Descending FlightAware
Tue 01:11:57 AM 51.4645 -0.1151 280° West 187 215 3,900  Level FlightAware
Tue 01:12:01 AM 51.4648 -0.1210 275° West 186 214 3,900 -750 Level FlightAware
Tue 01:12:13 AM 51.4651 -0.1366 272° West 184 212 3,700 -1,000 Descending FlightAware
Tue 01:12:25 AM 51.4654 -0.1535 272° West 188 216 3,500 -857 Descending FlightAware
Tue 01:12:34 AM 51.4654 -0.1662 270° West 188 216 3,400 -1,000 Descending FlightAware
Tue 01:12:49 AM 51.4654 -0.1874 270° West 186 214 3,100 -1,000 Descending FlightAware
Tue 01:13:04 AM 51.4654 -0.2079 270° West 185 213 2,900 -1,091 Descending FlightAware
Tue 01:13:11 AM 51.4654 -0.2180 270° West 186 214 2,700 -1,043 Descending FlightAware
Tue 01:13:27 AM 51.4654 -0.2390 270° West 186 214 2,500 -968 Descending FlightAware
Tue 01:13:42 AM 51.4654 -0.2605 270° West 185 213 2,200 -1,125 Descending FlightAware
Tue 01:13:59 AM 51.4653 -0.2838 270° West 176 203 1,900 -1,029 Descending FlightAware
Tue 01:14:17 AM 51.4651 -0.3051 269° West 164 189 1,600 -643 Descending FlightAware
Tue 01:14:27 AM 51.4650 -0.3160 270° West 164 189 1,600 -667 Level FlightAware (KGJT)
Tue 01:14:35 AM 51.4651 -0.3271 270° West 162 186 1,400 -1,385 Descending FlightAware
Tue 01:14:40 AM 51.4650 -0.3330 270° West 162 186 1,300 -833 Descending FlightAware (KGJT)
Tue 01:15:11 AM 51.4650 -0.3689 270° West 148 170 900 -750 Descending FlightAware
Tue 01:15:12 AM 51.4650 -0.3670 270° West 154 177 900 -1,000 Level FlightAware
Tue 01:15:29 AM 51.4650 -0.3892 270° West 146 168 600 -621 Descending FlightAware
Tue 01:15:41 AM 51.4650 -0.3950 269° West 152 175 600 -667 Level FlightAware
Tue 01:15:47 AM 51.4648 -0.4089 269° West 146 168 400 -1,250 Descending FlightAware
Tue 01:16:05 AM 51.4648 -0.4296 269° West 146 168 100 -158 Descending FlightAware
Tue 01:16:25 AM 51.4650 -0.4450 269° West 152 175 300 600 Climbing FlightAware

Login

Don't have an account? Register now (free) for customized features, flight alerts, and more!